sensor_id;sensor_type;location;lat;lon;timestamp;temperature;humidity
61585;DHT22;47479;53.810;18.308;2022-12-18T00:36:19;-4.90;86.70
61585;DHT22;47479;53.810;18.308;2022-12-18T00:41:26;-4.90;86.50
61585;DHT22;47479;53.810;18.308;2022-12-18T00:47:07;-5.00;86.80
61585;DHT22;47479;53.810;18.308;2022-12-18T00:52:08;-5.10;87.00
61585;DHT22;47479;53.810;18.308;2022-12-18T00:57:10;-5.10;87.40
61585;DHT22;47479;53.810;18.308;2022-12-18T01:02:15;-5.20;87.60
61585;DHT22;47479;53.810;18.308;2022-12-18T01:07:16;-5.20;87.70
61585;DHT22;47479;53.810;18.308;2022-12-18T01:12:18;-5.20;88.00
61585;DHT22;47479;53.810;18.308;2022-12-18T01:17:20;-5.20;88.30
61585;DHT22;47479;53.810;18.308;2022-12-18T01:22:38;-5.30;88.20
61585;DHT22;47479;53.810;18.308;2022-12-18T01:27:39;-5.20;88.20
61585;DHT22;47479;53.810;18.308;2022-12-18T01:32:41;-5.20;88.00
61585;DHT22;47479;53.810;18.308;2022-12-18T01:37:43;-5.10;88.10
61585;DHT22;47479;53.810;18.308;2022-12-18T01:42:50;-5.00;88.00
61585;DHT22;47479;53.810;18.308;2022-12-18T01:48:02;-4.90;87.70
61585;DHT22;47479;53.810;18.308;2022-12-18T01:53:10;-4.80;87.90
61585;DHT22;47479;53.810;18.308;2022-12-18T01:58:10;-4.80;88.00
61585;DHT22;47479;53.810;18.308;2022-12-18T02:03:11;-4.70;87.70
61585;DHT22;47479;53.810;18.308;2022-12-18T02:08:20;-4.60;88.00
61585;DHT22;47479;53.810;18.308;2022-12-18T02:13:36;-4.60;87.80
61585;DHT22;47479;53.810;18.308;2022-12-18T02:18:49;-4.50;87.40
61585;DHT22;47479;53.810;18.308;2022-12-18T02:28:59;-4.30;87.30
61585;DHT22;47479;53.810;18.308;2022-12-18T02:34:02;-4.40;87.10
61585;DHT22;47479;53.810;18.308;2022-12-18T02:39:05;-4.30;87.40
61585;DHT22;47479;53.810;18.308;2022-12-18T02:44:09;-4.30;87.70
61585;DHT22;47479;53.810;18.308;2022-12-18T02:54:55;-4.20;87.80
61585;DHT22;47479;53.810;18.308;2022-12-18T03:05:27;-4.20;88.00
61585;DHT22;47479;53.810;18.308;2022-12-18T03:10:29;-4.10;88.00
61585;DHT22;47479;53.810;18.308;2022-12-18T03:15:36;-4.10;88.00
61585;DHT22;47479;53.810;18.308;2022-12-18T03:20:39;-4.10;87.70
61585;DHT22;47479;53.810;18.308;2022-12-18T03:25:43;-4.10;87.50
61585;DHT22;47479;53.810;18.308;2022-12-18T03:30:46;-4.10;87.60
61585;DHT22;47479;53.810;18.308;2022-12-18T03:35:49;-4.10;87.50
61585;DHT22;47479;53.810;18.308;2022-12-18T03:46:02;-4.10;87.60
61585;DHT22;47479;53.810;18.308;2022-12-18T03:51:14;-4.10;87.50
61585;DHT22;47479;53.810;18.308;2022-12-18T03:56:13;-4.10;87.20
61585;DHT22;47479;53.810;18.308;2022-12-18T04:01:33;-4.10;87.30
61585;DHT22;47479;53.810;18.308;2022-12-18T04:06:35;-4.10;87.10
61585;DHT22;47479;53.810;18.308;2022-12-18T04:11:37;-4.10;87.10
61585;DHT22;47479;53.810;18.308;2022-12-18T04:16:39;-4.10;86.90
61585;DHT22;47479;53.810;18.308;2022-12-18T04:21:41;-4.20;87.00
61585;DHT22;47479;53.810;18.308;2022-12-18T04:26:43;-4.20;86.80
61585;DHT22;47479;53.810;18.308;2022-12-18T04:31:45;-4.30;86.70
61585;DHT22;47479;53.810;18.308;2022-12-18T04:36:47;-4.30;86.70
61585;DHT22;47479;53.810;18.308;2022-12-18T04:41:49;-4.30;86.70
61585;DHT22;47479;53.810;18.308;2022-12-18T04:46:50;-4.30;86.80
61585;DHT22;47479;53.810;18.308;2022-12-18T04:51:52;-4.40;86.70
61585;DHT22;47479;53.810;18.308;2022-12-18T04:56:54;-4.30;86.60
61585;DHT22;47479;53.810;18.308;2022-12-18T05:01:55;-4.40;86.50
61585;DHT22;47479;53.810;18.308;2022-12-18T05:06:57;-4.40;86.50
61585;DHT22;47479;53.810;18.308;2022-12-18T05:11:59;-4.40;86.40
61585;DHT22;47479;53.810;18.308;2022-12-18T05:17:01;-4.50;86.40
61585;DHT22;47479;53.810;18.308;2022-12-18T05:22:03;-4.50;86.40
61585;DHT22;47479;53.810;18.308;2022-12-18T05:27:16;-4.50;86.50
61585;DHT22;47479;53.810;18.308;2022-12-18T05:32:18;-4.50;86.40
61585;DHT22;47479;53.810;18.308;2022-12-18T05:37:20;-4.60;86.60
61585;DHT22;47479;53.810;18.308;2022-12-18T05:42:23;-4.60;86.70
61585;DHT22;47479;53.810;18.308;2022-12-18T05:47:26;-4.50;86.60
61585;DHT22;47479;53.810;18.308;2022-12-18T05:52:27;-4.50;86.70
61585;DHT22;47479;53.810;18.308;2022-12-18T05:57:29;-4.50;86.70
61585;DHT22;47479;53.810;18.308;2022-12-18T06:02:30;-4.50;86.60
61585;DHT22;47479;53.810;18.308;2022-12-18T06:07:32;-4.50;86.50
61585;DHT22;47479;53.810;18.308;2022-12-18T06:12:34;-4.60;86.30
61585;DHT22;47479;53.810;18.308;2022-12-18T06:17:36;-4.60;86.30
61585;DHT22;47479;53.810;18.308;2022-12-18T06:22:38;-4.60;86.20
61585;DHT22;47479;53.810;18.308;2022-12-18T06:27:40;-4.70;86.30
61585;DHT22;47479;53.810;18.308;2022-12-18T06:32:42;-4.70;86.10
61585;DHT22;47479;53.810;18.308;2022-12-18T06:37:43;-4.70;86.10
61585;DHT22;47479;53.810;18.308;2022-12-18T06:42:45;-4.70;86.20
61585;DHT22;47479;53.810;18.308;2022-12-18T06:47:47;-4.70;86.40
61585;DHT22;47479;53.810;18.308;2022-12-18T06:53:04;-4.70;86.10
61585;DHT22;47479;53.810;18.308;2022-12-18T06:58:06;-4.70;86.00
61585;DHT22;47479;53.810;18.308;2022-12-18T07:03:08;-4.80;85.90
61585;DHT22;47479;53.810;18.308;2022-12-18T07:08:09;-4.80;85.90
61585;DHT22;47479;53.810;18.308;2022-12-18T07:13:11;-4.80;86.10
61585;DHT22;47479;53.810;18.308;2022-12-18T07:18:13;-4.70;86.00
61585;DHT22;47479;53.810;18.308;2022-12-18T07:23:14;-4.70;86.10
61585;DHT22;47479;53.810;18.308;2022-12-18T07:28:16;-4.60;86.00
61585;DHT22;47479;53.810;18.308;2022-12-18T07:33:17;-4.60;85.90
61585;DHT22;47479;53.810;18.308;2022-12-18T07:38:19;-4.60;85.80
61585;DHT22;47479;53.810;18.308;2022-12-18T07:43:21;-4.60;85.80
61585;DHT22;47479;53.810;18.308;2022-12-18T07:48:22;-4.60;85.50
61585;DHT22;47479;53.810;18.308;2022-12-18T07:53:24;-4.50;85.70
61585;DHT22;47479;53.810;18.308;2022-12-18T07:58:26;-4.50;85.70
61585;DHT22;47479;53.810;18.308;2022-12-18T08:03:28;-4.30;85.60
61585;DHT22;47479;53.810;18.308;2022-12-18T08:08:30;-4.20;85.40
61585;DHT22;47479;53.810;18.308;2022-12-18T08:13:32;-4.20;85.40
61585;DHT22;47479;53.810;18.308;2022-12-18T08:18:53;-4.10;85.30
61585;DHT22;47479;53.810;18.308;2022-12-18T08:23:57;-3.90;85.20
61585;DHT22;47479;53.810;18.308;2022-12-18T08:28:59;-3.80;85.10
61585;DHT22;47479;53.810;18.308;2022-12-18T08:34:01;-3.70;84.90
61585;DHT22;47479;53.810;18.308;2022-12-18T08:39:04;-3.60;84.70
61585;DHT22;47479;53.810;18.308;2022-12-18T08:44:09;-3.50;84.40
61585;DHT22;47479;53.810;18.308;2022-12-18T08:49:39;-3.30;84.00
61585;DHT22;47479;53.810;18.308;2022-12-18T08:54:41;-3.20;83.20
61585;DHT22;47479;53.810;18.308;2022-12-18T08:59:43;-2.90;82.90
61585;DHT22;47479;53.810;18.308;2022-12-18T17:55:10;-4.50;74.70
61585;DHT22;47479;53.810;18.308;2022-12-18T18:00:13;-4.50;74.40
61585;DHT22;47479;53.810;18.308;2022-12-18T18:05:15;-4.50;74.50
61585;DHT22;47479;53.810;18.308;2022-12-18T18:10:17;-4.50;74.20
61585;DHT22;47479;53.810;18.308;2022-12-18T18:15:18;-4.50;74.40
61585;DHT22;47479;53.810;18.308;2022-12-18T18:20:20;-4.60;74.30
61585;DHT22;47479;53.810;18.308;2022-12-18T18:25:22;-4.70;74.30
61585;DHT22;47479;53.810;18.308;2022-12-18T18:31:09;-4.70;74.30
61585;DHT22;47479;53.810;18.308;2022-12-18T18:36:11;-4.80;74.70
61585;DHT22;47479;53.810;18.308;2022-12-18T18:41:13;-4.90;74.70
61585;DHT22;47479;53.810;18.308;2022-12-18T18:46:16;-4.90;74.70
61585;DHT22;47479;53.810;18.308;2022-12-18T18:51:19;-5.00;74.70
61585;DHT22;47479;53.810;18.308;2022-12-18T18:56:22;-5.10;75.00
61585;DHT22;47479;53.810;18.308;2022-12-18T19:01:24;-5.10;75.10
61585;DHT22;47479;53.810;18.308;2022-12-18T19:06:27;-5.10;75.20
61585;DHT22;47479;53.810;18.308;2022-12-18T19:11:29;-5.20;75.40
61585;DHT22;47479;53.810;18.308;2022-12-18T19:17:20;-5.30;75.50
61585;DHT22;47479;53.810;18.308;2022-12-18T19:22:22;-5.40;75.70
61585;DHT22;47479;53.810;18.308;2022-12-18T19:27:24;-5.50;75.90
61585;DHT22;47479;53.810;18.308;2022-12-18T19:32:25;-5.60;76.20
61585;DHT22;47479;53.810;18.308;2022-12-18T19:37:28;-5.70;76.50
61585;DHT22;47479;53.810;18.308;2022-12-18T19:42:30;-5.80;76.60
61585;DHT22;47479;53.810;18.308;2022-12-18T19:47:31;-5.90;77.00
61585;DHT22;47479;53.810;18.308;2022-12-18T19:52:33;-6.00;77.20
61585;DHT22;47479;53.810;18.308;2022-12-18T19:57:35;-6.10;77.40
61585;DHT22;47479;53.810;18.308;2022-12-18T20:02:36;-6.20;77.80
61585;DHT22;47479;53.810;18.308;2022-12-18T20:07:38;-6.30;78.10
61585;DHT22;47479;53.810;18.308;2022-12-18T20:12:40;-6.30;78.60
61585;DHT22;47479;53.810;18.308;2022-12-18T20:17:42;-6.40;79.00
61585;DHT22;47479;53.810;18.308;2022-12-18T20:22:43;-6.40;79.10
61585;DHT22;47479;53.810;18.308;2022-12-18T20:27:45;-6.40;79.50
61585;DHT22;47479;53.810;18.308;2022-12-18T20:32:46;-6.50;79.80
61585;DHT22;47479;53.810;18.308;2022-12-18T20:37:48;-6.50;80.00
61585;DHT22;47479;53.810;18.308;2022-12-18T20:42:50;-6.50;80.40
61585;DHT22;47479;53.810;18.308;2022-12-18T20:47:54;-6.60;80.80
61585;DHT22;47479;53.810;18.308;2022-12-18T20:53:04;-6.60;81.10
61585;DHT22;47479;53.810;18.308;2022-12-18T20:58:06;-6.60;81.10
61585;DHT22;47479;53.810;18.308;2022-12-18T21:03:09;-6.80;81.20
61585;DHT22;47479;53.810;18.308;2022-12-18T21:08:11;-6.80;81.30
61585;DHT22;47479;53.810;18.308;2022-12-18T21:13:13;-6.80;81.50
61585;DHT22;47479;53.810;18.308;2022-12-18T21:18:14;-6.80;81.70
61585;DHT22;47479;53.810;18.308;2022-12-18T21:23:16;-6.90;81.80
61585;DHT22;47479;53.810;18.308;2022-12-18T21:28:18;-6.90;81.80
61585;DHT22;47479;53.810;18.308;2022-12-18T21:33:19;-6.90;81.90
61585;DHT22;47479;53.810;18.308;2022-12-18T21:38:21;-6.90;82.00
61585;DHT22;47479;53.810;18.308;2022-12-18T21:43:23;-7.00;82.10
61585;DHT22;47479;53.810;18.308;2022-12-18T21:49:11;-7.00;82.20
61585;DHT22;47479;53.810;18.308;2022-12-18T21:54:24;-7.00;82.30
61585;DHT22;47479;53.810;18.308;2022-12-18T21:59:27;-7.10;82.50
61585;DHT22;47479;53.810;18.308;2022-12-18T22:04:30;-7.10;82.50
61585;DHT22;47479;53.810;18.308;2022-12-18T22:09:32;-7.20;82.70
61585;DHT22;47479;53.810;18.308;2022-12-18T22:14:34;-7.20;82.80
61585;DHT22;47479;53.810;18.308;2022-12-18T22:19:36;-7.20;82.90
61585;DHT22;47479;53.810;18.308;2022-12-18T22:24:38;-7.20;82.90
61585;DHT22;47479;53.810;18.308;2022-12-18T22:29:39;-7.30;83.10
61585;DHT22;47479;53.810;18.308;2022-12-18T22:35:23;-7.30;83.20
61585;DHT22;47479;53.810;18.308;2022-12-18T22:40:25;-7.30;83.40
61585;DHT22;47479;53.810;18.308;2022-12-18T22:45:27;-7.30;83.70
61585;DHT22;47479;53.810;18.308;2022-12-18T22:50:29;-7.30;83.80
61585;DHT22;47479;53.810;18.308;2022-12-18T22:55:33;-7.30;84.00
61585;DHT22;47479;53.810;18.308;2022-12-18T23:00:34;-7.40;83.90
61585;DHT22;47479;53.810;18.308;2022-12-18T23:05:36;-7.40;84.10
61585;DHT22;47479;53.810;18.308;2022-12-18T23:10:38;-7.40;84.10
61585;DHT22;47479;53.810;18.308;2022-12-18T23:15:40;-7.40;84.30
61585;DHT22;47479;53.810;18.308;2022-12-18T23:20:43;-7.40;84.40
61585;DHT22;47479;53.810;18.308;2022-12-18T23:25:44;-7.50;84.50
61585;DHT22;47479;53.810;18.308;2022-12-18T23:30:46;-7.40;84.50
61585;DHT22;47479;53.810;18.308;2022-12-18T23:35:48;-7.50;84.90
61585;DHT22;47479;53.810;18.308;2022-12-18T23:40:49;-7.40;85.10
61585;DHT22;47479;53.810;18.308;2022-12-18T23:45:52;-7.40;85.20
61585;DHT22;47479;53.810;18.308;2022-12-18T23:50:54;-7.40;85.30
61585;DHT22;47479;53.810;18.308;2022-12-18T23:55:56;-7.40;85.60
